sensor_id;sensor_type;location;lat;lon;timestamp;P1;durP1;ratioP1;P2;durP2;ratioP2
13386;SDS011;6763;48.524;9.044;2022-07-06T00:01:28;1.92;;;1.55;;
13386;SDS011;6763;48.524;9.044;2022-07-06T00:03:54;1.92;;;1.70;;
13386;SDS011;6763;48.524;9.044;2022-07-06T00:06:19;2.25;;;1.52;;
13386;SDS011;6763;48.524;9.044;2022-07-06T00:08:45;1.75;;;1.65;;
13386;SDS011;6763;48.524;9.044;2022-07-06T00:11:11;1.60;;;1.50;;
13386;SDS011;6763;48.524;9.044;2022-07-06T00:13:36;1.98;;;1.48;;
13386;SDS011;6763;48.524;9.044;2022-07-06T00:16:03;1.65;;;1.48;;
13386;SDS011;6763;48.524;9.044;2022-07-06T00:18:28;2.20;;;1.73;;
13386;SDS011;6763;48.524;9.044;2022-07-06T00:20:54;1.80;;;1.70;;
13386;SDS011;6763;48.524;9.044;2022-07-06T00:23:19;1.55;;;1.45;;
13386;SDS011;6763;48.524;9.044;2022-07-06T00:25:45;3.00;;;1.48;;
13386;SDS011;6763;48.524;9.044;2022-07-06T00:28:10;2.45;;;1.70;;
13386;SDS011;6763;48.524;9.044;2022-07-06T00:30:36;1.65;;;1.55;;
13386;SDS011;6763;48.524;9.044;2022-07-06T00:33:01;1.75;;;1.48;;
13386;SDS011;6763;48.524;9.044;2022-07-06T00:35:27;4.03;;;1.70;;
13386;SDS011;6763;48.524;9.044;2022-07-06T00:37:53;1.83;;;1.58;;
13386;SDS011;6763;48.524;9.044;2022-07-06T00:40:19;2.50;;;1.80;;
13386;SDS011;6763;48.524;9.044;2022-07-06T00:42:45;3.78;;;1.67;;
13386;SDS011;6763;48.524;9.044;2022-07-06T00:45:13;1.90;;;1.70;;
13386;SDS011;6763;48.524;9.044;2022-07-06T00:47:40;1.90;;;1.63;;
13386;SDS011;6763;48.524;9.044;2022-07-06T00:50:07;1.83;;;1.73;;
13386;SDS011;6763;48.524;9.044;2022-07-06T00:52:54;1.60;;;1.50;;
13386;SDS011;6763;48.524;9.044;2022-07-06T00:55:21;4.82;;;1.67;;
13386;SDS011;6763;48.524;9.044;2022-07-06T00:57:49;1.98;;;1.60;;
13386;SDS011;6763;48.524;9.044;2022-07-06T01:00:16;1.70;;;1.60;;
13386;SDS011;6763;48.524;9.044;2022-07-06T01:02:44;3.17;;;1.73;;
13386;SDS011;6763;48.524;9.044;2022-07-06T01:05:11;1.70;;;1.50;;
13386;SDS011;6763;48.524;9.044;2022-07-06T01:07:39;2.08;;;1.88;;
13386;SDS011;6763;48.524;9.044;2022-07-06T01:10:05;2.85;;;1.65;;
13386;SDS011;6763;48.524;9.044;2022-07-06T01:12:34;1.75;;;1.60;;
13386;SDS011;6763;48.524;9.044;2022-07-06T01:15:00;2.70;;;1.80;;
13386;SDS011;6763;48.524;9.044;2022-07-06T01:17:25;2.45;;;1.80;;
13386;SDS011;6763;48.524;9.044;2022-07-06T01:19:51;5.78;;;1.92;;
13386;SDS011;6763;48.524;9.044;2022-07-06T01:22:16;1.50;;;1.40;;
13386;SDS011;6763;48.524;9.044;2022-07-06T01:24:42;1.60;;;1.50;;
13386;SDS011;6763;48.524;9.044;2022-07-06T01:27:07;2.10;;;1.90;;
13386;SDS011;6763;48.524;9.044;2022-07-06T01:29:33;1.77;;;1.67;;
13386;SDS011;6763;48.524;9.044;2022-07-06T01:31:59;2.10;;;1.90;;
13386;SDS011;6763;48.524;9.044;2022-07-06T01:34:24;2.92;;;1.80;;
13386;SDS011;6763;48.524;9.044;2022-07-06T01:36:50;2.17;;;1.50;;
13386;SDS011;6763;48.524;9.044;2022-07-06T01:39:16;1.52;;;1.42;;
13386;SDS011;6763;48.524;9.044;2022-07-06T01:41:41;4.28;;;2.10;;
13386;SDS011;6763;48.524;9.044;2022-07-06T01:44:07;2.67;;;2.22;;
13386;SDS011;6763;48.524;9.044;2022-07-06T01:46:33;2.63;;;2.03;;
13386;SDS011;6763;48.524;9.044;2022-07-06T01:48:59;2.25;;;1.80;;
13386;SDS011;6763;48.524;9.044;2022-07-06T01:51:24;4.05;;;2.15;;
13386;SDS011;6763;48.524;9.044;2022-07-06T01:53:50;1.98;;;1.77;;
13386;SDS011;6763;48.524;9.044;2022-07-06T01:56:16;2.50;;;2.30;;
13386;SDS011;6763;48.524;9.044;2022-07-06T01:58:44;2.00;;;1.90;;
13386;SDS011;6763;48.524;9.044;2022-07-06T02:01:10;2.90;;;1.80;;
13386;SDS011;6763;48.524;9.044;2022-07-06T02:03:37;2.33;;;2.08;;
13386;SDS011;6763;48.524;9.044;2022-07-06T02:06:03;2.97;;;2.10;;
13386;SDS011;6763;48.524;9.044;2022-07-06T02:08:29;2.33;;;2.13;;
13386;SDS011;6763;48.524;9.044;2022-07-06T02:10:55;4.10;;;2.20;;
13386;SDS011;6763;48.524;9.044;2022-07-06T02:13:20;2.45;;;2.10;;
13386;SDS011;6763;48.524;9.044;2022-07-06T02:15:46;2.67;;;2.35;;
13386;SDS011;6763;48.524;9.044;2022-07-06T02:18:11;2.85;;;2.20;;
13386;SDS011;6763;48.524;9.044;2022-07-06T02:20:37;2.42;;;2.22;;
13386;SDS011;6763;48.524;9.044;2022-07-06T02:23:02;2.65;;;2.13;;
13386;SDS011;6763;48.524;9.044;2022-07-06T02:25:28;2.72;;;2.42;;
13386;SDS011;6763;48.524;9.044;2022-07-06T02:27:53;2.58;;;2.30;;
13386;SDS011;6763;48.524;9.044;2022-07-06T02:30:18;2.97;;;2.05;;
13386;SDS011;6763;48.524;9.044;2022-07-06T02:32:44;2.35;;;2.03;;
13386;SDS011;6763;48.524;9.044;2022-07-06T02:35:09;2.33;;;1.92;;
13386;SDS011;6763;48.524;9.044;2022-07-06T02:37:35;3.78;;;2.00;;
13386;SDS011;6763;48.524;9.044;2022-07-06T02:40:00;2.55;;;2.30;;
13386;SDS011;6763;48.524;9.044;2022-07-06T02:42:26;2.33;;;2.13;;
13386;SDS011;6763;48.524;9.044;2022-07-06T02:44:52;2.33;;;2.13;;
13386;SDS011;6763;48.524;9.044;2022-07-06T02:47:18;2.25;;;2.00;;
13386;SDS011;6763;48.524;9.044;2022-07-06T02:49:44;2.60;;;2.40;;
13386;SDS011;6763;48.524;9.044;2022-07-06T02:52:09;3.03;;;2.40;;
13386;SDS011;6763;48.524;9.044;2022-07-06T02:54:34;2.58;;;2.38;;
13386;SDS011;6763;48.524;9.044;2022-07-06T02:57:00;2.95;;;2.20;;
13386;SDS011;6763;48.524;9.044;2022-07-06T02:59:25;2.65;;;2.30;;
13386;SDS011;6763;48.524;9.044;2022-07-06T03:01:50;5.30;;;2.20;;
13386;SDS011;6763;48.524;9.044;2022-07-06T03:04:16;2.33;;;2.10;;
13386;SDS011;6763;48.524;9.044;2022-07-06T03:06:41;2.80;;;2.20;;
13386;SDS011;6763;48.524;9.044;2022-07-06T03:09:07;3.13;;;2.40;;
13386;SDS011;6763;48.524;9.044;2022-07-06T03:11:32;2.60;;;2.40;;
13386;SDS011;6763;48.524;9.044;2022-07-06T03:14:01;4.43;;;2.10;;
13386;SDS011;6763;48.524;9.044;2022-07-06T03:16:27;2.67;;;2.47;;
13386;SDS011;6763;48.524;9.044;2022-07-06T03:18:53;2.55;;;2.35;;
13386;SDS011;6763;48.524;9.044;2022-07-06T03:21:18;4.28;;;2.28;;
13386;SDS011;6763;48.524;9.044;2022-07-06T03:23:44;2.45;;;2.25;;
13386;SDS011;6763;48.524;9.044;2022-07-06T03:26:09;2.55;;;2.35;;
13386;SDS011;6763;48.524;9.044;2022-07-06T03:28:34;4.03;;;2.72;;
13386;SDS011;6763;48.524;9.044;2022-07-06T03:31:00;2.35;;;2.20;;
13386;SDS011;6763;48.524;9.044;2022-07-06T03:33:25;3.47;;;2.60;;
13386;SDS011;6763;48.524;9.044;2022-07-06T03:35:50;2.60;;;2.30;;
13386;SDS011;6763;48.524;9.044;2022-07-06T03:38:16;2.53;;;2.33;;
13386;SDS011;6763;48.524;9.044;2022-07-06T03:40:41;2.90;;;2.60;;
13386;SDS011;6763;48.524;9.044;2022-07-06T03:43:06;3.40;;;2.63;;
13386;SDS011;6763;48.524;9.044;2022-07-06T03:45:32;2.70;;;2.45;;
13386;SDS011;6763;48.524;9.044;2022-07-06T03:47:57;2.60;;;2.40;;
13386;SDS011;6763;48.524;9.044;2022-07-06T03:50:23;2.90;;;2.63;;
13386;SDS011;6763;48.524;9.044;2022-07-06T03:52:48;2.50;;;2.30;;
13386;SDS011;6763;48.524;9.044;2022-07-06T03:55:13;2.63;;;2.38;;
13386;SDS011;6763;48.524;9.044;2022-07-06T03:57:39;2.90;;;2.65;;
13386;SDS011;6763;48.524;9.044;2022-07-06T04:00:06;4.40;;;2.20;;
13386;SDS011;6763;48.524;9.044;2022-07-06T04:02:32;2.30;;;2.10;;
13386;SDS011;6763;48.524;9.044;2022-07-06T04:04:58;2.38;;;2.17;;
13386;SDS011;6763;48.524;9.044;2022-07-06T04:07:23;2.67;;;2.45;;
13386;SDS011;6763;48.524;9.044;2022-07-06T04:09:48;2.38;;;2.17;;
13386;SDS011;6763;48.524;9.044;2022-07-06T04:12:14;2.45;;;2.20;;
13386;SDS011;6763;48.524;9.044;2022-07-06T04:14:39;2.63;;;2.42;;
13386;SDS011;6763;48.524;9.044;2022-07-06T04:17:04;2.67;;;2.15;;
13386;SDS011;6763;48.524;9.044;2022-07-06T04:19:48;2.47;;;2.28;;
13386;SDS011;6763;48.524;9.044;2022-07-06T04:22:14;2.53;;;2.30;;
13386;SDS011;6763;48.524;9.044;2022-07-06T04:24:39;2.13;;;1.98;;
13386;SDS011;6763;48.524;9.044;2022-07-06T04:27:04;2.35;;;2.10;;
13386;SDS011;6763;48.524;9.044;2022-07-06T04:29:30;2.60;;;2.13;;
13386;SDS011;6763;48.524;9.044;2022-07-06T04:31:55;2.40;;;2.20;;
13386;SDS011;6763;48.524;9.044;2022-07-06T04:34:20;2.20;;;2.03;;
13386;SDS011;6763;48.524;9.044;2022-07-06T04:36:46;2.97;;;2.10;;
13386;SDS011;6763;48.524;9.044;2022-07-06T04:39:11;3.65;;;2.40;;
13386;SDS011;6763;48.524;9.044;2022-07-06T04:41:37;4.03;;;2.30;;
13386;SDS011;6763;48.524;9.044;2022-07-06T04:44:02;2.30;;;2.10;;
13386;SDS011;6763;48.524;9.044;2022-07-06T04:46:28;2.50;;;2.30;;
13386;SDS011;6763;48.524;9.044;2022-07-06T04:48:53;3.10;;;2.03;;
13386;SDS011;6763;48.524;9.044;2022-07-06T04:51:19;3.03;;;2.17;;
13386;SDS011;6763;48.524;9.044;2022-07-06T04:53:44;6.47;;;2.30;;
13386;SDS011;6763;48.524;9.044;2022-07-06T04:56:10;2.30;;;2.10;;
13386;SDS011;6763;48.524;9.044;2022-07-06T04:58:36;5.47;;;2.30;;
13386;SDS011;6763;48.524;9.044;2022-07-06T05:01:01;1.98;;;1.73;;
13386;SDS011;6763;48.524;9.044;2022-07-06T05:03:26;2.83;;;1.92;;
13386;SDS011;6763;48.524;9.044;2022-07-06T05:05:52;2.22;;;2.03;;
13386;SDS011;6763;48.524;9.044;2022-07-06T05:08:17;4.55;;;2.10;;
13386;SDS011;6763;48.524;9.044;2022-07-06T05:10:43;2.10;;;1.98;;
13386;SDS011;6763;48.524;9.044;2022-07-06T05:13:08;2.40;;;2.20;;
13386;SDS011;6763;48.524;9.044;2022-07-06T05:15:34;2.40;;;2.20;;
13386;SDS011;6763;48.524;9.044;2022-07-06T05:17:59;2.28;;;2.08;;
13386;SDS011;6763;48.524;9.044;2022-07-06T05:20:24;3.92;;;2.35;;
13386;SDS011;6763;48.524;9.044;2022-07-06T05:22:50;2.08;;;1.88;;
13386;SDS011;6763;48.524;9.044;2022-07-06T05:25:15;3.85;;;1.90;;
13386;SDS011;6763;48.524;9.044;2022-07-06T05:27:40;1.90;;;1.80;;
13386;SDS011;6763;48.524;9.044;2022-07-06T05:30:06;2.40;;;2.00;;
13386;SDS011;6763;48.524;9.044;2022-07-06T05:32:32;3.47;;;1.70;;
13386;SDS011;6763;48.524;9.044;2022-07-06T05:34:57;2.17;;;1.90;;
13386;SDS011;6763;48.524;9.044;2022-07-06T05:37:23;3.10;;;2.13;;
13386;SDS011;6763;48.524;9.044;2022-07-06T05:39:48;1.92;;;1.83;;
13386;SDS011;6763;48.524;9.044;2022-07-06T05:42:15;4.05;;;2.10;;
13386;SDS011;6763;48.524;9.044;2022-07-06T05:44:41;1.80;;;1.70;;
13386;SDS011;6763;48.524;9.044;2022-07-06T05:47:06;3.25;;;1.90;;
13386;SDS011;6763;48.524;9.044;2022-07-06T05:49:50;2.08;;;1.88;;
13386;SDS011;6763;48.524;9.044;2022-07-06T05:52:34;2.13;;;1.90;;
13386;SDS011;6763;48.524;9.044;2022-07-06T05:54:59;2.17;;;1.98;;
13386;SDS011;6763;48.524;9.044;2022-07-06T05:57:25;2.25;;;2.05;;
13386;SDS011;6763;48.524;9.044;2022-07-06T05:59:51;2.17;;;1.83;;
13386;SDS011;6763;48.524;9.044;2022-07-06T06:02:16;4.30;;;1.63;;
13386;SDS011;6763;48.524;9.044;2022-07-06T06:04:42;2.10;;;1.90;;
13386;SDS011;6763;48.524;9.044;2022-07-06T06:07:07;2.35;;;2.15;;
13386;SDS011;6763;48.524;9.044;2022-07-06T06:09:32;4.13;;;1.88;;
13386;SDS011;6763;48.524;9.044;2022-07-06T06:11:58;1.90;;;1.80;;
13386;SDS011;6763;48.524;9.044;2022-07-06T06:14:23;2.00;;;1.90;;
13386;SDS011;6763;48.524;9.044;2022-07-06T06:16:48;2.80;;;1.88;;
13386;SDS011;6763;48.524;9.044;2022-07-06T06:19:14;2.65;;;2.20;;
13386;SDS011;6763;48.524;9.044;2022-07-06T06:21:40;2.85;;;2.28;;
13386;SDS011;6763;48.524;9.044;2022-07-06T06:24:05;5.00;;;2.17;;
13386;SDS011;6763;48.524;9.044;2022-07-06T06:26:31;2.55;;;2.35;;
13386;SDS011;6763;48.524;9.044;2022-07-06T06:28:56;2.83;;;2.35;;
13386;SDS011;6763;48.524;9.044;2022-07-06T06:31:22;3.38;;;2.08;;
13386;SDS011;6763;48.524;9.044;2022-07-06T06:33:47;3.17;;;2.33;;
13386;SDS011;6763;48.524;9.044;2022-07-06T06:36:13;3.83;;;1.95;;
13386;SDS011;6763;48.524;9.044;2022-07-06T06:38:38;3.33;;;2.15;;
13386;SDS011;6763;48.524;9.044;2022-07-06T06:41:04;2.58;;;2.00;;
13386;SDS011;6763;48.524;9.044;2022-07-06T06:43:29;3.78;;;2.20;;
13386;SDS011;6763;48.524;9.044;2022-07-06T06:45:55;2.40;;;2.15;;
13386;SDS011;6763;48.524;9.044;2022-07-06T06:48:20;2.33;;;2.13;;
13386;SDS011;6763;48.524;9.044;2022-07-06T06:50:45;3.35;;;2.03;;
13386;SDS011;6763;48.524;9.044;2022-07-06T06:53:11;3.53;;;2.00;;
13386;SDS011;6763;48.524;9.044;2022-07-06T06:55:36;3.85;;;2.13;;
13386;SDS011;6763;48.524;9.044;2022-07-06T06:58:02;9.77;;;2.10;;
13386;SDS011;6763;48.524;9.044;2022-07-06T07:00:28;4.40;;;2.03;;
13386;SDS011;6763;48.524;9.044;2022-07-06T07:02:53;2.63;;;2.25;;
13386;SDS011;6763;48.524;9.044;2022-07-06T07:05:18;2.40;;;2.20;;
13386;SDS011;6763;48.524;9.044;2022-07-06T07:07:44;4.03;;;2.20;;
13386;SDS011;6763;48.524;9.044;2022-07-06T07:10:09;4.22;;;2.20;;
13386;SDS011;6763;48.524;9.044;2022-07-06T07:12:34;2.20;;;2.00;;
13386;SDS011;6763;48.524;9.044;2022-07-06T07:15:00;3.28;;;2.55;;
13386;SDS011;6763;48.524;9.044;2022-07-06T07:17:26;5.05;;;2.42;;
13386;SDS011;6763;48.524;9.044;2022-07-06T07:19:52;3.58;;;2.55;;
13386;SDS011;6763;48.524;9.044;2022-07-06T07:22:17;3.88;;;2.10;;
13386;SDS011;6763;48.524;9.044;2022-07-06T07:24:43;2.55;;;2.00;;
13386;SDS011;6763;48.524;9.044;2022-07-06T07:27:08;2.28;;;2.08;;
13386;SDS011;6763;48.524;9.044;2022-07-06T07:29:33;2.88;;;2.22;;
13386;SDS011;6763;48.524;9.044;2022-07-06T07:31:59;2.08;;;1.98;;
13386;SDS011;6763;48.524;9.044;2022-07-06T07:34:24;2.35;;;2.15;;
13386;SDS011;6763;48.524;9.044;2022-07-06T07:36:50;3.95;;;2.42;;
13386;SDS011;6763;48.524;9.044;2022-07-06T07:39:15;2.38;;;2.17;;
13386;SDS011;6763;48.524;9.044;2022-07-06T07:41:40;2.83;;;2.20;;
13386;SDS011;6763;48.524;9.044;2022-07-06T07:44:06;3.30;;;2.00;;
13386;SDS011;6763;48.524;9.044;2022-07-06T07:46:31;4.18;;;2.22;;
13386;SDS011;6763;48.524;9.044;2022-07-06T07:48:56;2.17;;;2.00;;
13386;SDS011;6763;48.524;9.044;2022-07-06T07:51:22;2.55;;;2.20;;
13386;SDS011;6763;48.524;9.044;2022-07-06T07:53:47;5.13;;;1.85;;
13386;SDS011;6763;48.524;9.044;2022-07-06T07:56:12;2.53;;;2.00;;
13386;SDS011;6763;48.524;9.044;2022-07-06T07:58:38;4.43;;;1.90;;
13386;SDS011;6763;48.524;9.044;2022-07-06T08:01:03;2.20;;;2.00;;
13386;SDS011;6763;48.524;9.044;2022-07-06T08:03:29;2.60;;;2.22;;
13386;SDS011;6763;48.524;9.044;2022-07-06T08:05:56;3.78;;;2.00;;
13386;SDS011;6763;48.524;9.044;2022-07-06T08:08:22;3.40;;;2.08;;
13386;SDS011;6763;48.524;9.044;2022-07-06T08:10:47;2.45;;;2.25;;
13386;SDS011;6763;48.524;9.044;2022-07-06T08:13:13;4.28;;;2.22;;
13386;SDS011;6763;48.524;9.044;2022-07-06T08:15:40;3.05;;;2.28;;
13386;SDS011;6763;48.524;9.044;2022-07-06T08:18:06;2.90;;;1.95;;
13386;SDS011;6763;48.524;9.044;2022-07-06T08:20:31;4.10;;;1.95;;
13386;SDS011;6763;48.524;9.044;2022-07-06T08:22:56;1.85;;;1.75;;
13386;SDS011;6763;48.524;9.044;2022-07-06T08:25:22;2.47;;;1.92;;
13386;SDS011;6763;48.524;9.044;2022-07-06T08:27:47;2.47;;;1.83;;
13386;SDS011;6763;48.524;9.044;2022-07-06T08:30:13;2.17;;;1.98;;
13386;SDS011;6763;48.524;9.044;2022-07-06T08:32:39;1.85;;;1.75;;
13386;SDS011;6763;48.524;9.044;2022-07-06T08:35:08;4.13;;;1.98;;
13386;SDS011;6763;48.524;9.044;2022-07-06T08:37:34;1.85;;;1.70;;
13386;SDS011;6763;48.524;9.044;2022-07-06T08:40:00;2.72;;;1.88;;
13386;SDS011;6763;48.524;9.044;2022-07-06T08:42:31;3.60;;;2.05;;
13386;SDS011;6763;48.524;9.044;2022-07-06T08:44:59;2.53;;;2.03;;
13386;SDS011;6763;48.524;9.044;2022-07-06T08:47:28;2.97;;;1.95;;
13386;SDS011;6763;48.524;9.044;2022-07-06T08:49:55;2.17;;;1.98;;
13386;SDS011;6763;48.524;9.044;2022-07-06T08:52:21;3.05;;;1.63;;
13386;SDS011;6763;48.524;9.044;2022-07-06T08:54:48;2.08;;;1.98;;
13386;SDS011;6763;48.524;9.044;2022-07-06T08:57:14;1.70;;;1.60;;
13386;SDS011;6763;48.524;9.044;2022-07-06T08:59:39;2.03;;;1.83;;
13386;SDS011;6763;48.524;9.044;2022-07-06T09:02:05;2.10;;;1.70;;
13386;SDS011;6763;48.524;9.044;2022-07-06T09:04:33;4.28;;;2.10;;
13386;SDS011;6763;48.524;9.044;2022-07-06T09:07:01;2.42;;;1.70;;
13386;SDS011;6763;48.524;9.044;2022-07-06T09:09:27;1.88;;;1.77;;
13386;SDS011;6763;48.524;9.044;2022-07-06T09:11:57;2.10;;;1.77;;
13386;SDS011;6763;48.524;9.044;2022-07-06T09:14:23;1.50;;;1.40;;
13386;SDS011;6763;48.524;9.044;2022-07-06T09:16:52;2.30;;;1.98;;
13386;SDS011;6763;48.524;9.044;2022-07-06T09:19:28;2.05;;;1.65;;
13386;SDS011;6763;48.524;9.044;2022-07-06T09:21:55;3.60;;;2.00;;
13386;SDS011;6763;48.524;9.044;2022-07-06T09:24:20;2.00;;;1.80;;
13386;SDS011;6763;48.524;9.044;2022-07-06T09:26:47;2.28;;;1.65;;
13386;SDS011;6763;48.524;9.044;2022-07-06T09:29:12;1.98;;;1.77;;
13386;SDS011;6763;48.524;9.044;2022-07-06T09:31:38;1.92;;;1.83;;
13386;SDS011;6763;48.524;9.044;2022-07-06T09:34:05;1.98;;;1.85;;
13386;SDS011;6763;48.524;9.044;2022-07-06T09:36:39;2.85;;;1.77;;
13386;SDS011;6763;48.524;9.044;2022-07-06T09:41:58;2.50;;;1.65;;
13386;SDS011;6763;48.524;9.044;2022-07-06T09:44:26;1.77;;;1.45;;
13386;SDS011;6763;48.524;9.044;2022-07-06T09:46:55;1.90;;;1.70;;
13386;SDS011;6763;48.524;9.044;2022-07-06T09:49:21;2.05;;;1.90;;
13386;SDS011;6763;48.524;9.044;2022-07-06T09:51:49;2.00;;;1.60;;
13386;SDS011;6763;48.524;9.044;2022-07-06T09:54:16;1.50;;;1.40;;
13386;SDS011;6763;48.524;9.044;2022-07-06T09:56:46;3.28;;;1.80;;
13386;SDS011;6763;48.524;9.044;2022-07-06T09:59:19;2.20;;;1.67;;
13386;SDS011;6763;48.524;9.044;2022-07-06T10:01:46;1.90;;;1.80;;
13386;SDS011;6763;48.524;9.044;2022-07-06T10:04:16;1.95;;;1.40;;
13386;SDS011;6763;48.524;9.044;2022-07-06T10:06:43;1.90;;;1.67;;
13386;SDS011;6763;48.524;9.044;2022-07-06T10:09:10;1.60;;;1.50;;
13386;SDS011;6763;48.524;9.044;2022-07-06T10:11:43;2.80;;;1.77;;
13386;SDS011;6763;48.524;9.044;2022-07-06T10:14:12;1.77;;;1.67;;
13386;SDS011;6763;48.524;9.044;2022-07-06T10:16:42;1.63;;;1.52;;
13386;SDS011;6763;48.524;9.044;2022-07-06T10:19:08;1.75;;;1.58;;
13386;SDS011;6763;48.524;9.044;2022-07-06T10:21:38;3.92;;;1.98;;
13386;SDS011;6763;48.524;9.044;2022-07-06T10:24:05;4.60;;;1.70;;
13386;SDS011;6763;48.524;9.044;2022-07-06T10:26:32;1.90;;;1.80;;
13386;SDS011;6763;48.524;9.044;2022-07-06T10:28:59;2.47;;;1.52;;
13386;SDS011;6763;48.524;9.044;2022-07-06T10:31:26;1.63;;;1.50;;
13386;SDS011;6763;48.524;9.044;2022-07-06T10:33:54;1.83;;;1.55;;
13386;SDS011;6763;48.524;9.044;2022-07-06T10:36:20;1.63;;;1.52;;
13386;SDS011;6763;48.524;9.044;2022-07-06T10:38:48;4.25;;;1.52;;
13386;SDS011;6763;48.524;9.044;2022-07-06T10:41:15;1.50;;;1.40;;
13386;SDS011;6763;48.524;9.044;2022-07-06T10:43:42;1.95;;;1.60;;
13386;SDS011;6763;48.524;9.044;2022-07-06T10:46:10;2.95;;;1.77;;
13386;SDS011;6763;48.524;9.044;2022-07-06T10:48:40;2.45;;;1.60;;
13386;SDS011;6763;48.524;9.044;2022-07-06T10:51:07;2.22;;;1.80;;
13386;SDS011;6763;48.524;9.044;2022-07-06T10:53:34;2.83;;;1.52;;
13386;SDS011;6763;48.524;9.044;2022-07-06T10:56:03;1.30;;;1.20;;
13386;SDS011;6763;48.524;9.044;2022-07-06T11:01:17;2.25;;;1.58;;
13386;SDS011;6763;48.524;9.044;2022-07-06T11:06:21;1.75;;;1.30;;
13386;SDS011;6763;48.524;9.044;2022-07-06T11:16:21;1.98;;;1.40;;
13386;SDS011;6763;48.524;9.044;2022-07-06T11:24:05;1.50;;;1.40;;
13386;SDS011;6763;48.524;9.044;2022-07-06T11:26:33;1.77;;;1.60;;
13386;SDS011;6763;48.524;9.044;2022-07-06T11:29:02;2.88;;;1.60;;
13386;SDS011;6763;48.524;9.044;2022-07-06T11:31:28;2.20;;;1.55;;
13386;SDS011;6763;48.524;9.044;2022-07-06T11:33:54;1.58;;;1.45;;
13386;SDS011;6763;48.524;9.044;2022-07-06T11:36:20;1.67;;;1.58;;
13386;SDS011;6763;48.524;9.044;2022-07-06T11:38:47;3.40;;;1.40;;
13386;SDS011;6763;48.524;9.044;2022-07-06T11:41:15;2.67;;;1.45;;
13386;SDS011;6763;48.524;9.044;2022-07-06T11:43:43;1.60;;;1.50;;
13386;SDS011;6763;48.524;9.044;2022-07-06T11:48:53;4.40;;;1.80;;
13386;SDS011;6763;48.524;9.044;2022-07-06T11:51:27;3.35;;;1.42;;
13386;SDS011;6763;48.524;9.044;2022-07-06T11:53:54;1.55;;;1.33;;
13386;SDS011;6763;48.524;9.044;2022-07-06T11:56:22;2.58;;;1.48;;
13386;SDS011;6763;48.524;9.044;2022-07-06T11:58:59;3.22;;;1.58;;
13386;SDS011;6763;48.524;9.044;2022-07-06T12:01:26;1.80;;;1.30;;
13386;SDS011;6763;48.524;9.044;2022-07-06T12:03:53;4.38;;;1.67;;
13386;SDS011;6763;48.524;9.044;2022-07-06T12:06:22;1.60;;;1.50;;
13386;SDS011;6763;48.524;9.044;2022-07-06T12:08:49;2.05;;;1.55;;
13386;SDS011;6763;48.524;9.044;2022-07-06T12:11:20;2.97;;;1.60;;
13386;SDS011;6763;48.524;9.044;2022-07-06T12:13:59;2.47;;;1.75;;
13386;SDS011;6763;48.524;9.044;2022-07-06T12:16:30;1.92;;;1.77;;
13386;SDS011;6763;48.524;9.044;2022-07-06T12:18:59;1.70;;;1.55;;
13386;SDS011;6763;48.524;9.044;2022-07-06T12:21:25;1.75;;;1.58;;
13386;SDS011;6763;48.524;9.044;2022-07-06T12:23:51;1.40;;;1.30;;
13386;SDS011;6763;48.524;9.044;2022-07-06T12:26:21;2.35;;;1.58;;
13386;SDS011;6763;48.524;9.044;2022-07-06T12:29:07;3.70;;;1.92;;
13386;SDS011;6763;48.524;9.044;2022-07-06T12:31:39;2.20;;;1.50;;
13386;SDS011;6763;48.524;9.044;2022-07-06T12:34:12;1.95;;;1.50;;
13386;SDS011;6763;48.524;9.044;2022-07-06T12:36:43;1.90;;;1.70;;
13386;SDS011;6763;48.524;9.044;2022-07-06T12:39:13;2.47;;;1.65;;
13386;SDS011;6763;48.524;9.044;2022-07-06T12:42:01;2.42;;;1.70;;
13386;SDS011;6763;48.524;9.044;2022-07-06T12:44:29;3.80;;;2.10;;
13386;SDS011;6763;48.524;9.044;2022-07-06T12:47:06;1.88;;;1.73;;
13386;SDS011;6763;48.524;9.044;2022-07-06T12:49:34;2.42;;;1.90;;
13386;SDS011;6763;48.524;9.044;2022-07-06T12:52:02;2.10;;;1.63;;
13386;SDS011;6763;48.524;9.044;2022-07-06T12:54:31;2.17;;;1.60;;
13386;SDS011;6763;48.524;9.044;2022-07-06T12:59:56;1.95;;;1.77;;
13386;SDS011;6763;48.524;9.044;2022-07-06T13:02:23;1.88;;;1.50;;
13386;SDS011;6763;48.524;9.044;2022-07-06T13:07:23;1.70;;;1.60;;
13386;SDS011;6763;48.524;9.044;2022-07-06T13:09:49;5.43;;;1.67;;
13386;SDS011;6763;48.524;9.044;2022-07-06T13:12:14;2.67;;;1.92;;
13386;SDS011;6763;48.524;9.044;2022-07-06T13:14:40;4.72;;;2.00;;
13386;SDS011;6763;48.524;9.044;2022-07-06T13:17:05;2.60;;;1.73;;
13386;SDS011;6763;48.524;9.044;2022-07-06T13:19:31;1.67;;;1.58;;
13386;SDS011;6763;48.524;9.044;2022-07-06T13:21:56;2.08;;;1.73;;
13386;SDS011;6763;48.524;9.044;2022-07-06T13:24:21;2.45;;;1.88;;
13386;SDS011;6763;48.524;9.044;2022-07-06T13:26:47;1.50;;;1.40;;
13386;SDS011;6763;48.524;9.044;2022-07-06T13:29:12;2.00;;;1.80;;
13386;SDS011;6763;48.524;9.044;2022-07-06T13:31:38;3.03;;;1.80;;
13386;SDS011;6763;48.524;9.044;2022-07-06T13:34:04;3.53;;;1.88;;
13386;SDS011;6763;48.524;9.044;2022-07-06T13:36:30;1.95;;;1.67;;
13386;SDS011;6763;48.524;9.044;2022-07-06T13:38:55;1.75;;;1.50;;
13386;SDS011;6763;48.524;9.044;2022-07-06T13:41:21;2.63;;;1.60;;
13386;SDS011;6763;48.524;9.044;2022-07-06T13:43:46;1.92;;;1.83;;
13386;SDS011;6763;48.524;9.044;2022-07-06T13:46:11;1.70;;;1.60;;
13386;SDS011;6763;48.524;9.044;2022-07-06T13:48:37;1.90;;;1.80;;
13386;SDS011;6763;48.524;9.044;2022-07-06T13:51:02;4.30;;;1.70;;
13386;SDS011;6763;48.524;9.044;2022-07-06T13:53:28;1.55;;;1.45;;
13386;SDS011;6763;48.524;9.044;2022-07-06T13:55:53;1.85;;;1.70;;
13386;SDS011;6763;48.524;9.044;2022-07-06T13:58:19;1.67;;;1.40;;
13386;SDS011;6763;48.524;9.044;2022-07-06T14:00:45;1.67;;;1.50;;
13386;SDS011;6763;48.524;9.044;2022-07-06T14:03:11;1.60;;;1.50;;
13386;SDS011;6763;48.524;9.044;2022-07-06T14:05:37;5.38;;;1.73;;
13386;SDS011;6763;48.524;9.044;2022-07-06T14:08:02;1.70;;;1.50;;
13386;SDS011;6763;48.524;9.044;2022-07-06T14:10:28;1.73;;;1.63;;
13386;SDS011;6763;48.524;9.044;2022-07-06T14:12:53;1.98;;;1.52;;
13386;SDS011;6763;48.524;9.044;2022-07-06T14:15:19;1.65;;;1.55;;
13386;SDS011;6763;48.524;9.044;2022-07-06T14:17:45;1.92;;;1.73;;
13386;SDS011;6763;48.524;9.044;2022-07-06T14:20:12;1.67;;;1.58;;
13386;SDS011;6763;48.524;9.044;2022-07-06T14:22:38;2.90;;;1.80;;
13386;SDS011;6763;48.524;9.044;2022-07-06T14:25:03;1.70;;;1.60;;
13386;SDS011;6763;48.524;9.044;2022-07-06T14:27:30;2.25;;;1.50;;
13386;SDS011;6763;48.524;9.044;2022-07-06T14:29:55;1.40;;;1.30;;
13386;SDS011;6763;48.524;9.044;2022-07-06T14:32:21;1.67;;;1.58;;
13386;SDS011;6763;48.524;9.044;2022-07-06T14:34:46;1.80;;;1.50;;
13386;SDS011;6763;48.524;9.044;2022-07-06T14:37:12;2.15;;;1.50;;
13386;SDS011;6763;48.524;9.044;2022-07-06T14:39:37;1.48;;;1.38;;
13386;SDS011;6763;48.524;9.044;2022-07-06T14:42:03;1.70;;;1.58;;
13386;SDS011;6763;48.524;9.044;2022-07-06T14:44:29;1.50;;;1.40;;
13386;SDS011;6763;48.524;9.044;2022-07-06T14:46:54;2.28;;;1.35;;
13386;SDS011;6763;48.524;9.044;2022-07-06T14:49:19;3.22;;;1.60;;
13386;SDS011;6763;48.524;9.044;2022-07-06T14:51:45;1.83;;;1.30;;
13386;SDS011;6763;48.524;9.044;2022-07-06T14:54:10;2.58;;;1.23;;
13386;SDS011;6763;48.524;9.044;2022-07-06T14:56:36;1.92;;;1.35;;
13386;SDS011;6763;48.524;9.044;2022-07-06T14:59:01;1.60;;;1.10;;
13386;SDS011;6763;48.524;9.044;2022-07-06T15:01:27;5.25;;;1.70;;
13386;SDS011;6763;48.524;9.044;2022-07-06T15:03:52;3.05;;;1.30;;
13386;SDS011;6763;48.524;9.044;2022-07-06T15:06:18;3.90;;;1.27;;
13386;SDS011;6763;48.524;9.044;2022-07-06T15:08:43;1.50;;;1.20;;
13386;SDS011;6763;48.524;9.044;2022-07-06T15:11:09;1.50;;;1.40;;
13386;SDS011;6763;48.524;9.044;2022-07-06T15:13:34;1.67;;;1.40;;
13386;SDS011;6763;48.524;9.044;2022-07-06T15:15:59;2.17;;;1.50;;
13386;SDS011;6763;48.524;9.044;2022-07-06T15:18:25;2.53;;;1.50;;
13386;SDS011;6763;48.524;9.044;2022-07-06T15:20:50;2.13;;;1.20;;
13386;SDS011;6763;48.524;9.044;2022-07-06T15:23:16;1.30;;;1.20;;
13386;SDS011;6763;48.524;9.044;2022-07-06T15:25:41;1.63;;;1.40;;